Terminal Aerodrome Forecast
Issued by NWS

Home | Current Version | Previous Version | Text Only | Print | Product List | Glossary On
Versions: 1 2 3 4 5 6 7 8 9 10 11 12 13 14 15 16
000
FTUS43 KMPX 090940 AAA
TAFRNH
TAF AMD
KRNH 090940Z 0910/1006 30009KT P6SM SCT060
     FM091400 29006KT P6SM BKN020 OVC050
     FM092000 28006KT P6SM SCT035 BKN060=

USA.gov is the U.S. government's official web portal to all federal, state and local government web resources and services.